EW8167 Weather Reports


time (UTC)temp
C
wind
direction
speed
KPH
gust
KPH
rain 1hr
cm
rain 24hr
cm
rain mn
cm
humidity
%
barometer
mb
20260503180008 16 229 8.0 16.1 0.00 0.00 0.00 65 1014.1
20260503174600 16 215 4.8 16.1 0.00 0.00 0.00 67 1014.2
20260503173101 15 179 6.4 14.5 0.00 0.00 0.00 70 1014.1
20260503171555 15 267 11.3 17.7 0.00 0.00 0.00 72 1014.1
20260503170151 14 167 8.0 12.9 0.00 0.00 0.00 77 1014.2
20260503160142 13 167 4.8 11.3 0.00 0.00 0.00 77 1014.1
20260503150133 12 124 8.0 12.9 0.00 0.00 0.00 83 1013.7
20260503140144 12 155 1.6 4.8 0.00 0.00 0.00 83 1013.0
20260503130139 12 161 0.0 0.0 0.00 0.00 0.00 82 1012.3
20260503120149 12 275 0.0 3.2 0.00 0.00 0.00 82 1012.0
20260503110144 12 265 3.2 6.4 0.00 0.00 0.00 81 1012.0
20260503100133 12 360 1.6 4.8 0.00 0.00 0.00 80 1012.0
20260503090145 13 276 1.6 6.4 0.00 0.00 0.00 79 1012.3
20260503081604 13 347 3.2 9.7 0.00 0.00 0.00 79 1012.6
20260503080138 13 339 1.6 9.7 0.00 0.00 0.00 79 1012.6
20260503071553 13 330 1.6 12.9 0.00 0.00 0.00 78 1012.7
20260503070149 13 19 1.6 6.4 0.00 0.00 0.00 78 1012.7
20260503060140 13 355 4.8 12.9 0.00 0.00 0.00 77 1012.9
20260503054543 13 331 1.6 8.0 0.00 0.00 0.00 76 1013.0
20260503053034 13 28 1.6 9.7 0.00 0.00 0.00 76 1013.0
20260503051534 13 255 1.6 12.9 0.00 0.00 0.00 76 1013.2
20260503050134 13 5 3.2 9.7 0.00 0.00 0.00 76 1013.2
20260503044549 13 15 8.0 17.7 0.00 0.00 0.00 76 1013.2
20260503043044 13 342 4.8 14.5 0.00 0.00 0.00 76 1012.9
20260503041547 13 327 3.2 12.9 0.00 0.00 0.00 76 1012.7
20260503040142 14 343 3.2 9.7 0.00 0.00 0.00 75 1012.4
20260503034545 14 300 3.2 14.5 0.00 0.00 0.00 75 1012.2
20260503033042 14 329 1.6 6.4 0.00 0.00 0.00 74 1012.1
20260503031546 15 211 0.0 4.8 0.00 0.00 0.00 74 1011.9
20260503030134 15 167 3.2 6.4 0.00 0.00 0.00 73 1011.8
20260503024607 15 130 3.2 9.7 0.00 0.00 0.00 71 1011.7
20260503023049 16 128 9.7 12.9 0.00 0.00 0.00 70 1011.5
20260503021551 17 100 3.2 11.3 0.00 0.00 0.00 68 1011.5
20260503020147 17 146 1.6 8.0 0.00 0.00 0.00 68 1011.4
20260503014543 17 225 3.2 8.0 0.00 0.00 0.00 68 1011.4
20260503013040 18 263 8.0 19.3 0.00 0.00 0.00 65 1011.4
20260503011543 18 174 8.0 14.5 0.00 0.00 0.00 64 1011.2
20260503010139 20 251 8.0 14.5 0.00 0.00 0.00 62 1011.1
20260503004556 20 176 8.0 16.1 0.00 0.00 0.00 59 1011.0
20260503003056 21 182 8.0 14.5 0.00 0.00 0.00 57 1011.1
20260503001601 21 190 6.4 16.1 0.00 0.00 0.00 57 1011.2
20260503000150 21 162 6.4 12.9 0.00 0.00 0.00 59 1011.3
20260502234557 20 174 6.4 14.5 0.00 0.00 0.00 59 1011.4
20260502233100 20 280 9.7 16.1 0.00 0.00 0.00 59 1011.4
20260502231600 20 238 8.0 16.1 0.00 0.00 0.00 59 1011.6
20260502230141 20 227 12.9 19.3 0.00 0.00 0.00 59 1012.0
20260502224544 20 219 3.2 17.7 0.00 0.00 0.00 58 1012.2
20260502223046 20 235 8.0 17.7 0.00 0.00 0.00 58 1012.5
20260502221536 20 244 9.7 16.1 0.00 0.00 0.00 59 1012.9
20260502220133 20 171 3.2 9.7 0.00 0.00 0.00 61 1013.1
20260502214558 18 232 6.4 14.5 0.00 0.00 0.00 63 1013.4
20260502213053 18 184 4.8 14.5 0.00 0.00 0.00 65 1013.5
20260502211548 18 275 8.0 12.9 0.00 0.00 0.00 64 1013.5
20260502210145 17 259 8.0 14.5 0.00 0.00 0.00 66 1013.7
20260502204549 17 211 9.7 16.1 0.00 0.00 0.00 67 1014.1
20260502203048 18 230 6.4 12.9 0.00 0.00 0.00 67 1014.3
20260502201539 17 192 8.0 16.1 0.00 0.00 0.00 69 1014.6
20260502200004 17 225 6.4 14.5 0.00 0.00 0.00 70 1014.7
20260502194559 16 152 6.4 14.5 0.00 0.00 0.00 72 1014.9
20260502193057 15 238 8.0 14.5 0.00 0.00 0.00 74 1015.0
20260502191556 15 186 4.8 17.7 0.00 0.00 0.00 74 1015.1
20260502190149 15 300 6.4 16.1 0.00 0.00 0.00 76 1015.2
20260502184548 14 159 3.2 9.7 0.00 0.00 0.00 79 1015.3
20260502183046 13 129 4.8 12.9 0.00 0.00 0.00 81 1015.4
20260502181542 13 201 3.2 12.9 0.00 0.00 0.00 82 1015.4
20260502180141 13 235 4.8 11.3 0.00 0.00 0.00 83 1015.4